Time;durP1;ratioP1;P1;durP2;ratioP2;P2;SDS_P1;SDS_P2;PMS_P1;PMS_P2;Temp;Humidity;BMP_temperature;BMP_pressure;BME280_temperature;BME280_humidity;BME280_pressure;Samples;Min_cycle;Max_cycle;Signal;HPM_P1;HPM_P2
2021/09/01 00:00:43;;;;;;;0.00;0.00;;;15.70;99.90;;;;;;6233763;23;20013;-93
2021/09/01 00:03:10;;;;;;;0.00;0.00;;;15.70;99.90;;;;;;6208377;23;20521;-93
2021/09/01 00:05:37;;;;;;;0.00;0.00;;;15.70;99.90;;;;;;6233390;23;20016;-94
2021/09/01 00:08:04;;;;;;;0.00;0.00;;;15.70;99.90;;;;;;6232853;23;20063;-93
2021/09/01 00:10:31;;;;;;;0.00;0.00;;;15.70;99.90;;;;;;6184075;23;20020;-93
2021/09/01 00:12:59;;;;;;;0.35;0.22;;;15.70;99.90;;;;;;6208652;23;20020;-93
2021/09/01 00:15:26;;;;;;;0.03;0.03;;;15.70;99.90;;;;;;6235783;23;20435;-94
2021/09/01 00:17:52;;;;;;;0.08;0.08;;;15.70;99.90;;;;;;6210951;23;20051;-94
2021/09/01 00:20:19;;;;;;;0.00;0.00;;;15.70;99.90;;;;;;6186589;23;20012;-93
2021/09/01 00:22:46;;;;;;;0.22;0.10;;;15.70;99.90;;;;;;6235228;23;20012;-94
2021/09/01 00:25:13;;;;;;;0.00;0.00;;;15.70;99.90;;;;;;6210228;23;20021;-94
2021/09/01 00:27:40;;;;;;;0.00;0.00;;;15.70;99.90;;;;;;6235702;23;20012;-93
2021/09/01 00:30:07;;;;;;;0.00;0.00;;;15.70;99.90;;;;;;6234790;23;20013;-94
2021/09/01 00:32:34;;;;;;;0.00;0.00;;;15.70;99.90;;;;;;6210741;23;20009;-94
2021/09/01 00:35:01;;;;;;;0.00;0.00;;;15.70;99.90;;;;;;6235261;23;20477;-93
2021/09/01 00:37:28;;;;;;;0.00;0.00;;;15.70;99.90;;;;;;6235868;23;20014;-93
2021/09/01 00:39:54;;;;;;;0.00;0.00;;;15.70;99.90;;;;;;6236442;23;20433;-93
2021/09/01 00:42:21;;;;;;;2.08;0.68;;;15.70;99.90;;;;;;6185950;23;20021;-94
2021/09/01 00:44:48;;;;;;;0.10;0.10;;;15.80;99.90;;;;;;6235881;23;20012;-93
2021/09/01 00:47:17;;;;;;;0.13;0.13;;;15.80;99.90;;;;;;6235777;23;20433;-94
2021/09/01 00:49:46;;;;;;;0.00;0.00;;;15.80;99.90;;;;;;6236525;23;20338;-94
2021/09/01 00:52:13;;;;;;;0.28;0.20;;;15.80;99.90;;;;;;6235269;23;20009;-94
2021/09/01 00:54:41;;;;;;;0.00;0.00;;;15.80;99.90;;;;;;6235550;23;20020;-93
2021/09/01 00:57:10;;;;;;;0.00;0.00;;;15.80;99.90;;;;;;6235275;23;20012;-93
2021/09/01 00:59:42;;;;;;;0.17;0.17;;;15.80;99.90;;;;;;6235064;23;20013;-93
2021/09/01 01:02:09;;;;;;;4.28;0.40;;;15.80;99.90;;;;;;6211308;23;20095;-94
2021/09/01 01:04:36;;;;;;;0.10;0.10;;;15.70;99.90;;;;;;6235354;23;20012;-93
2021/09/01 01:07:08;;;;;;;0.10;0.10;;;15.70;99.90;;;;;;6234610;23;20008;-93
2021/09/01 01:09:36;;;;;;;0.00;0.00;;;15.80;99.90;;;;;;6235102;23;20008;-93
2021/09/01 01:12:05;;;;;;;0.00;0.00;;;15.80;99.90;;;;;;6234744;23;20009;-93
2021/09/01 01:14:46;;;;;;;0.00;0.00;;;15.70;99.90;;;;;;6234802;23;20020;-93
2021/09/01 01:17:17;;;;;;;0.00;0.00;;;15.70;99.90;;;;;;6234391;23;20341;-93
2021/09/01 01:19:52;;;;;;;0.52;0.32;;;15.70;99.90;;;;;;6234472;23;20051;-94
2021/09/01 01:22:24;;;;;;;0.10;0.10;;;15.50;99.90;;;;;;6234954;23;20079;-94
2021/09/01 01:25:04;;;;;;;0.22;0.22;;;15.60;99.90;;;;;;6234818;23;20016;-95
2021/09/01 01:27:31;;;;;;;0.00;0.00;;;15.60;99.90;;;;;;6235138;23;20009;-93
2021/09/01 01:30:19;;;;;;;0.00;0.00;;;15.60;99.90;;;;;;6234241;23;20012;-94
2021/09/01 01:32:49;;;;;;;0.00;0.00;;;15.60;99.90;;;;;;6234683;23;20012;-95
2021/09/01 01:35:30;;;;;;;0.00;0.00;;;15.60;99.90;;;;;;6209137;23;20103;-94
2021/09/01 01:37:59;;;;;;;0.10;0.10;;;15.60;99.90;;;;;;6234219;23;20012;-94
2021/09/01 01:40:27;;;;;;;0.00;0.00;;;15.50;99.90;;;;;;6234108;23;20068;-95
2021/09/01 01:42:54;;;;;;;0.05;0.05;;;15.50;99.90;;;;;;6234647;23;20017;-94
2021/09/01 01:45:23;;;;;;;0.00;0.00;;;15.50;99.90;;;;;;6234588;23;20017;-94
2021/09/01 01:47:50;;;;;;;0.00;0.00;;;15.50;99.90;;;;;;6209268;23;20008;-93
2021/09/01 01:50:17;;;;;;;0.00;0.00;;;15.50;99.90;;;;;;6233957;23;20029;-94
2021/09/01 01:52:44;;;;;;;0.00;0.00;;;15.50;99.90;;;;;;6234190;23;20008;-94
2021/09/01 01:55:11;;;;;;;0.00;0.00;;;15.50;99.90;;;;;;6234118;23;20016;-94
2021/09/01 01:57:38;;;;;;;0.00;0.00;;;15.50;99.90;;;;;;6234622;23;20016;-95
2021/09/01 02:00:06;;;;;;;0.00;0.00;;;15.50;99.90;;;;;;6233805;23;20023;-94
2021/09/01 02:02:33;;;;;;;0.22;0.13;;;15.50;99.90;;;;;;6233889;23;20086;-94
2021/09/01 02:05:01;;;;;;;0.20;0.20;;;15.50;99.90;;;;;;6234930;23;20019;-95
2021/09/01 02:07:29;;;;;;;0.00;0.00;;;15.40;99.90;;;;;;6233533;23;20051;-93
2021/09/01 02:09:59;;;;;;;0.38;0.20;;;15.50;99.90;;;;;;6234068;23;20013;-94
2021/09/01 02:12:29;;;;;;;0.00;0.00;;;15.40;99.90;;;;;;6233990;23;20009;-94
2021/09/01 02:15:03;;;;;;;0.00;0.00;;;15.50;99.90;;;;;;6233945;23;20078;-94
2021/09/01 02:17:30;;;;;;;0.00;0.00;;;15.70;99.90;;;;;;6210371;23;20127;-94
2021/09/01 02:19:57;;;;;;;0.00;0.00;;;15.50;99.90;;;;;;6234496;23;20016;-94
2021/09/01 02:22:24;;;;;;;0.00;0.00;;;15.50;99.90;;;;;;6234709;23;20333;-94
2021/09/01 02:24:51;;;;;;;0.00;0.00;;;15.50;99.90;;;;;;6233775;23;20016;-93
2021/09/01 02:27:18;;;;;;;0.00;0.00;;;15.50;99.90;;;;;;6234451;23;20020;-94
2021/09/01 02:29:45;;;;;;;0.10;0.10;;;15.40;99.90;;;;;;6209230;23;20013;-95
2021/09/01 02:32:12;;;;;;;0.00;0.00;;;15.40;99.90;;;;;;6233821;23;20024;-94
2021/09/01 02:34:40;;;;;;;0.00;0.00;;;15.40;99.90;;;;;;6233500;23;20369;-94
2021/09/01 02:37:07;;;;;;;0.00;0.00;;;15.40;99.90;;;;;;6233809;23;20437;-93
2021/09/01 02:39:34;;;;;;;0.60;0.50;;;15.30;99.90;;;;;;6233295;23;20020;-94
2021/09/01 02:42:00;;;;;;;0.00;0.00;;;15.30;99.90;;;;;;6233712;23;20012;-95
2021/09/01 02:44:27;;;;;;;0.00;0.00;;;15.30;99.90;;;;;;6233758;23;20017;-94
2021/09/01 02:46:54;;;;;;;0.00;0.00;;;15.30;99.90;;;;;;6233995;23;20016;-94
2021/09/01 02:49:21;;;;;;;0.00;0.00;;;15.30;99.90;;;;;;6233493;23;20514;-95
2021/09/01 02:51:48;;;;;;;0.00;0.00;;;15.10;99.90;;;;;;6209176;23;20012;-95
2021/09/01 02:54:15;;;;;;;0.00;0.00;;;15.30;99.90;;;;;;6234142;23;20445;-94
2021/09/01 02:56:42;;;;;;;0.00;0.00;;;15.30;99.90;;;;;;6234027;23;20452;-94
2021/09/01 02:59:08;;;;;;;0.00;0.00;;;15.30;99.90;;;;;;6234184;23;20031;-94
2021/09/01 03:01:35;;;;;;;0.00;0.00;;;15.30;99.90;;;;;;6233595;23;20020;-94
2021/09/01 03:04:02;;;;;;;0.00;0.00;;;15.30;99.90;;;;;;6208539;23;20017;-94
2021/09/01 03:06:29;;;;;;;0.00;0.00;;;15.30;99.90;;;;;;6233298;23;20528;-94
2021/09/01 03:08:57;;;;;;;0.00;0.00;;;15.30;99.90;;;;;;6233682;23;20039;-93
2021/09/01 03:11:24;;;;;;;0.00;0.00;;;15.40;99.90;;;;;;6208909;23;20013;-93
2021/09/01 03:13:53;;;;;;;0.00;0.00;;;15.30;99.90;;;;;;6208876;23;20012;-93
2021/09/01 03:16:20;;;;;;;0.00;0.00;;;15.30;99.90;;;;;;6233735;23;20091;-93
2021/09/01 03:18:46;;;;;;;0.47;0.10;;;15.30;99.90;;;;;;6233691;23;20074;-93
2021/09/01 03:21:13;;;;;;;0.08;0.08;;;15.30;99.90;;;;;;6234186;23;20020;-94
2021/09/01 03:23:40;;;;;;;0.25;0.25;;;15.30;99.90;;;;;;6232914;23;20062;-93
2021/09/01 03:26:06;;;;;;;0.00;0.00;;;15.30;99.90;;;;;;6233472;23;20048;-94
2021/09/01 03:28:33;;;;;;;0.10;0.10;;;15.30;99.90;;;;;;6233432;23;20009;-93
2021/09/01 03:31:00;;;;;;;0.00;0.00;;;15.30;99.90;;;;;;6183960;23;20096;-94
2021/09/01 03:33:27;;;;;;;0.00;0.00;;;15.30;99.90;;;;;;6208136;23;20024;-92
2021/09/01 03:35:54;;;;;;;0.00;0.00;;;15.30;99.90;;;;;;6208694;23;20016;-93
2021/09/01 03:38:21;;;;;;;12.70;0.40;;;15.30;99.90;;;;;;6208164;23;20017;-95
2021/09/01 03:40:47;;;;;;;0.10;0.10;;;15.30;99.90;;;;;;6207962;23;20082;-93
2021/09/01 03:43:14;;;;;;;0.10;0.10;;;15.30;99.90;;;;;;6184016;23;20013;-94
2021/09/01 03:45:41;;;;;;;0.00;0.00;;;15.40;99.90;;;;;;6208232;23;20020;-94
2021/09/01 03:48:08;;;;;;;0.10;0.10;;;15.40;99.90;;;;;;6209261;23;20410;-94
2021/09/01 03:50:40;;;;;;;0.00;0.00;;;15.30;99.90;;;;;;6186035;23;20333;-93
2021/09/01 03:53:07;;;;;;;0.10;0.10;;;15.30;99.90;;;;;;6210479;23;20465;-93
2021/09/01 03:55:34;;;;;;;0.00;0.00;;;15.30;99.90;;;;;;6209976;23;20012;-94
2021/09/01 03:58:03;;;;;;;0.00;0.00;;;15.30;99.90;;;;;;6210495;23;20017;-94
2021/09/01 04:00:30;;;;;;;0.10;0.10;;;15.30;99.90;;;;;;6210895;23;20062;-94
2021/09/01 04:02:57;;;;;;;0.00;0.00;;;15.30;99.90;;;;;;6211384;23;20016;-94
2021/09/01 04:05:24;;;;;;;0.00;0.00;;;15.30;99.90;;;;;;6186346;23;20012;-94
2021/09/01 04:07:51;;;;;;;0.63;0.30;;;15.30;99.90;;;;;;6209830;23;20055;-94
2021/09/01 04:10:17;;;;;;;0.00;0.00;;;15.30;99.90;;;;;;6210273;23;20143;-95
2021/09/01 04:12:44;;;;;;;0.00;0.00;;;15.20;99.90;;;;;;6209932;23;20310;-94
2021/09/01 04:15:11;;;;;;;0.20;0.15;;;15.30;99.90;;;;;;6211360;23;20051;-93
2021/09/01 04:17:38;;;;;;;0.00;0.00;;;15.20;99.90;;;;;;6185431;23;20023;-94
2021/09/01 04:20:06;;;;;;;0.00;0.00;;;15.30;99.90;;;;;;6185583;23;20012;-94
2021/09/01 04:22:33;;;;;;;0.00;0.00;;;15.20;99.90;;;;;;6187210;23;20020;-93
2021/09/01 04:25:00;;;;;;;0.30;0.10;;;15.30;99.90;;;;;;6187205;23;20013;-93
2021/09/01 04:27:27;;;;;;;0.00;0.00;;;15.30;99.90;;;;;;6211347;23;20012;-93
2021/09/01 04:29:54;;;;;;;0.00;0.00;;;15.30;99.90;;;;;;6209969;23;20087;-94
2021/09/01 04:32:20;;;;;;;0.00;0.00;;;15.20;99.90;;;;;;6224230;23;20017;-95
2021/09/01 04:34:47;;;;;;;0.00;0.00;;;15.20;99.90;;;;;;6210048;23;20023;-94
2021/09/01 04:37:14;;;;;;;0.00;0.00;;;15.30;99.90;;;;;;6235434;23;20016;-93
2021/09/01 04:39:41;;;;;;;0.00;0.00;;;15.30;99.90;;;;;;6236361;23;20020;-93
2021/09/01 04:42:08;;;;;;;0.05;0.05;;;15.20;99.90;;;;;;6236112;23;20013;-93
2021/09/01 04:44:34;;;;;;;0.00;0.00;;;15.30;99.90;;;;;;6211237;23;20040;-93
2021/09/01 04:47:01;;;;;;;0.00;0.00;;;15.30;99.90;;;;;;6235499;23;20016;-94
2021/09/01 04:49:28;;;;;;;0.10;0.10;;;15.30;99.90;;;;;;6211729;23;20441;-93
2021/09/01 04:51:55;;;;;;;0.00;0.00;;;15.30;99.90;;;;;;6211113;23;20012;-93
2021/09/01 04:54:22;;;;;;;0.17;0.17;;;15.30;99.90;;;;;;6210811;23;20016;-94
2021/09/01 04:56:48;;;;;;;0.00;0.00;;;15.30;99.90;;;;;;6235978;23;20020;-93
2021/09/01 04:59:15;;;;;;;0.10;0.10;;;15.30;99.90;;;;;;6234959;23;20051;-94
2021/09/01 05:01:42;;;;;;;0.10;0.10;;;15.30;99.90;;;;;;6209206;23;20013;-93
2021/09/01 05:04:09;;;;;;;0.30;0.10;;;15.30;99.90;;;;;;6210038;23;20021;-93
2021/09/01 05:06:36;;;;;;;0.00;0.00;;;15.10;99.90;;;;;;6210784;23;20013;-93
2021/09/01 05:09:02;;;;;;;0.03;0.03;;;15.30;99.90;;;;;;6211571;23;20059;-94
2021/09/01 05:11:29;;;;;;;0.00;0.00;;;15.30;99.90;;;;;;6209745;23;20019;-93
2021/09/01 05:13:56;;;;;;;0.00;0.00;;;15.30;99.90;;;;;;6210170;23;20102;-92
2021/09/01 05:16:23;;;;;;;0.00;0.00;;;15.30;99.90;;;;;;6186041;23;20512;-93
2021/09/01 05:18:49;;;;;;;0.00;0.00;;;15.30;99.90;;;;;;6186528;23;20074;-93
2021/09/01 05:21:18;;;;;;;0.00;0.00;;;14.90;99.90;;;;;;6211287;23;20048;-92
2021/09/01 05:23:49;;;;;;;0.20;0.10;;;15.30;99.90;;;;;;6234666;23;20021;-92
2021/09/01 05:26:18;;;;;;;0.00;0.00;;;15.30;99.90;;;;;;6235521;23;20012;-91
2021/09/01 05:28:51;;;;;;;0.00;0.00;;;15.30;99.90;;;;;;6260862;23;20044;-95
2021/09/01 05:31:21;;;;;;;0.00;0.00;;;15.30;99.90;;;;;;6238241;23;20504;-94
2021/09/01 05:33:50;;;;;;;0.00;0.00;;;15.30;99.90;;;;;;6236046;23;20488;-92
2021/09/01 05:36:17;;;;;;;0.10;0.10;;;15.40;99.90;;;;;;6236436;23;20095;-91
2021/09/01 05:38:46;;;;;;;0.00;0.00;;;15.30;99.90;;;;;;6210687;23;20093;-92
2021/09/01 05:41:13;;;;;;;0.00;0.00;;;15.30;99.90;;;;;;6212424;23;20016;-92
2021/09/01 05:43:40;;;;;;;0.00;0.00;;;15.30;99.90;;;;;;6236860;23;20024;-92
2021/09/01 05:46:07;;;;;;;0.10;0.10;;;15.30;99.90;;;;;;6213199;23;20009;-93
2021/09/01 05:48:36;;;;;;;0.00;0.00;;;15.30;99.90;;;;;;6237373;23;20044;-94
2021/09/01 05:51:03;;;;;;;0.00;0.00;;;15.30;99.90;;;;;;6237591;23;20013;-95
2021/09/01 05:53:31;;;;;;;0.00;0.00;;;15.30;99.90;;;;;;6213774;23;20044;-95
2021/09/01 05:56:07;;;;;;;0.22;0.10;;;15.30;99.90;;;;;;6262643;23;20027;-93
2021/09/01 05:58:38;;;;;;;0.20;0.20;;;15.30;99.90;;;;;;6237762;23;20021;-94
2021/09/01 06:01:06;;;;;;;0.00;0.00;;;15.30;99.90;;;;;;6212169;23;20020;-93
2021/09/01 06:03:41;;;;;;;0.00;0.00;;;15.40;99.90;;;;;;6238034;23;20030;-93
2021/09/01 06:06:10;;;;;;;0.00;0.00;;;15.40;99.90;;;;;;6237296;23;20509;-93
2021/09/01 06:08:42;;;;;;;0.00;0.00;;;15.40;99.90;;;;;;6263742;23;20071;-92
2021/09/01 06:11:10;;;;;;;0.00;0.00;;;15.30;99.90;;;;;;6236342;23;20012;-94
2021/09/01 06:13:37;;;;;;;0.00;0.00;;;15.30;99.90;;;;;;6236948;23;20437;-93
2021/09/01 06:16:04;;;;;;;2.10;0.10;;;15.30;99.90;;;;;;6187295;23;20040;-92
2021/09/01 06:18:31;;;;;;;0.00;0.00;;;15.40;99.90;;;;;;6236915;23;20020;-93
2021/09/01 06:20:58;;;;;;;0.13;0.13;;;15.40;99.90;;;;;;6236178;23;20008;-93
2021/09/01 06:23:25;;;;;;;0.10;0.05;;;15.40;99.90;;;;;;6236940;23;20016;-91
2021/09/01 06:25:52;;;;;;;0.00;0.00;;;15.40;99.90;;;;;;6210642;23;20146;-89
2021/09/01 06:28:19;;;;;;;0.00;0.00;;;15.50;99.90;;;;;;6234665;23;20009;-89
2021/09/01 06:30:46;;;;;;;0.10;0.10;;;15.50;99.90;;;;;;6234385;23;20045;-90
2021/09/01 06:33:12;;;;;;;0.10;0.10;;;15.40;99.90;;;;;;6210514;23;20013;-88
2021/09/01 06:35:41;;;;;;;0.00;0.00;;;15.50;99.90;;;;;;6210562;23;20016;-90
2021/09/01 06:38:09;;;;;;;0.00;0.00;;;15.50;99.90;;;;;;6210360;23;20016;-91
2021/09/01 06:40:35;;;;;;;0.00;0.00;;;15.50;99.90;;;;;;6210909;23;20024;-89
2021/09/01 06:43:02;;;;;;;0.10;0.10;;;15.50;99.90;;;;;;6185561;23;20009;-90
2021/09/01 06:45:29;;;;;;;0.00;0.00;;;15.60;99.90;;;;;;6212148;23;20012;-91
2021/09/01 06:47:56;;;;;;;0.10;0.10;;;15.60;99.90;;;;;;6212538;23;20013;-87
2021/09/01 06:50:25;;;;;;;0.00;0.00;;;15.60;99.90;;;;;;6187023;23;20437;-93
2021/09/01 06:52:53;;;;;;;0.00;0.00;;;15.60;99.90;;;;;;6236839;23;20013;-92
2021/09/01 06:55:21;;;;;;;0.05;0.03;;;15.60;99.90;;;;;;6212347;23;20325;-89
2021/09/01 06:57:48;;;;;;;0.00;0.00;;;15.60;99.90;;;;;;6187362;23;20016;-92
2021/09/01 07:00:17;;;;;;;0.00;0.00;;;15.70;99.90;;;;;;6212745;23;20388;-92
2021/09/01 07:02:45;;;;;;;0.00;0.00;;;15.70;99.90;;;;;;6188749;23;20023;-93
2021/09/01 07:05:14;;;;;;;0.00;0.00;;;15.70;99.90;;;;;;6211607;23;20016;-89
2021/09/01 07:07:42;;;;;;;0.00;0.00;;;15.80;99.90;;;;;;6186347;23;20047;-86
2021/09/01 07:10:10;;;;;;;0.15;0.15;;;15.80;99.90;;;;;;6210483;23;20460;-87
2021/09/01 07:12:37;;;;;;;0.00;0.00;;;15.90;99.90;;;;;;6185157;23;20008;-86
2021/09/01 07:15:08;;;;;;;0.00;0.00;;;15.90;99.90;;;;;;6185227;23;20021;-87
2021/09/01 07:17:36;;;;;;;0.00;0.00;;;15.90;99.90;;;;;;6185896;23;20020;-87
2021/09/01 07:20:04;;;;;;;0.20;0.20;;;15.90;99.90;;;;;;6185743;23;20388;-88
2021/09/01 07:22:31;;;;;;;0.00;0.00;;;15.90;99.90;;;;;;6186568;23;20099;-89
2021/09/01 07:24:58;;;;;;;0.38;0.10;;;15.90;99.90;;;;;;6161249;23;20453;-87
2021/09/01 07:27:25;;;;;;;0.05;0.05;;;15.90;99.90;;;;;;6210476;23;20013;-87
2021/09/01 07:29:52;;;;;;;0.00;0.00;;;16.00;99.90;;;;;;6185552;23;20341;-87
2021/09/01 07:32:19;;;;;;;0.40;0.20;;;16.00;99.90;;;;;;6222711;23;20017;-85
2021/09/01 07:34:46;;;;;;;0.10;0.10;;;16.00;99.90;;;;;;6234597;23;20191;-87
2021/09/01 07:37:13;;;;;;;0.00;0.00;;;16.00;99.90;;;;;;6185080;23;20017;-87
2021/09/01 07:39:39;;;;;;;0.00;0.00;;;16.00;99.90;;;;;;6209706;23;20016;-88
2021/09/01 07:42:06;;;;;;;0.00;0.00;;;16.00;99.90;;;;;;6208549;23;20350;-90
2021/09/01 07:44:33;;;;;;;0.10;0.10;;;16.00;99.90;;;;;;6209530;23;20091;-89
2021/09/01 07:47:00;;;;;;;0.03;0.03;;;16.00;99.90;;;;;;6210794;23;20020;-91
2021/09/01 07:49:28;;;;;;;0.05;0.05;;;16.10;99.90;;;;;;6210710;23;20012;-89
2021/09/01 07:51:55;;;;;;;0.00;0.00;;;16.00;99.90;;;;;;6234879;23;20369;-87
2021/09/01 07:54:22;;;;;;;0.00;0.00;;;16.10;99.90;;;;;;6209640;23;20017;-86
2021/09/01 07:56:49;;;;;;;0.00;0.00;;;16.10;99.90;;;;;;6208728;23;20024;-86
2021/09/01 07:59:15;;;;;;;0.00;0.00;;;16.10;99.90;;;;;;6183666;23;20008;-86
2021/09/01 08:01:42;;;;;;;0.00;0.00;;;16.20;99.90;;;;;;6184340;23;20021;-87
2021/09/01 08:04:09;;;;;;;0.00;0.00;;;16.20;99.90;;;;;;6184517;23;20023;-86
2021/09/01 08:06:36;;;;;;;0.43;0.10;;;16.20;99.90;;;;;;6234531;23;20009;-86
2021/09/01 08:09:02;;;;;;;0.25;0.08;;;16.30;99.90;;;;;;6209803;23;20047;-88
2021/09/01 08:11:30;;;;;;;0.00;0.00;;;16.20;99.90;;;;;;6233126;23;20008;-87
2021/09/01 08:13:57;;;;;;;0.43;0.43;;;16.30;99.90;;;;;;6209976;23;20013;-87
2021/09/01 08:16:24;;;;;;;0.08;0.08;;;16.30;99.90;;;;;;6185374;23;20048;-86
2021/09/01 08:18:50;;;;;;;0.10;0.10;;;16.30;99.90;;;;;;6184372;23;20017;-87
2021/09/01 08:21:19;;;;;;;0.00;0.00;;;16.30;99.90;;;;;;6184331;23;20012;-88
2021/09/01 08:23:45;;;;;;;0.00;0.00;;;16.40;99.90;;;;;;6208665;23;20509;-92
2021/09/01 08:26:13;;;;;;;0.00;0.00;;;16.40;99.90;;;;;;6209672;23;20048;-92
2021/09/01 08:28:42;;;;;;;0.00;0.00;;;16.40;99.90;;;;;;6209696;23;20038;-91
2021/09/01 08:31:09;;;;;;;0.00;0.00;;;16.40;99.90;;;;;;6209627;23;20016;-90
2021/09/01 08:33:36;;;;;;;0.00;0.00;;;16.50;99.90;;;;;;6159631;23;20023;-88
2021/09/01 08:36:04;;;;;;;0.10;0.05;;;16.50;99.90;;;;;;6186434;23;20020;-90
2021/09/01 08:38:36;;;;;;;0.00;0.00;;;16.50;99.90;;;;;;6187604;23;20203;-96
2021/09/01 08:41:03;;;;;;;0.08;0.03;;;16.50;99.90;;;;;;6188030;23;20019;-90
2021/09/01 08:43:31;;;;;;;0.00;0.00;;;16.50;99.90;;;;;;6186765;23;20012;-90
2021/09/01 08:46:02;;;;;;;0.00;0.00;;;16.60;99.90;;;;;;6210875;23;20040;-88
2021/09/01 08:48:30;;;;;;;0.10;0.10;;;16.60;99.90;;;;;;6211200;23;20013;-92
2021/09/01 08:50:56;;;;;;;0.00;0.00;;;16.60;99.90;;;;;;6211507;23;20013;-87
2021/09/01 08:53:23;;;;;;;0.00;0.00;;;16.70;99.90;;;;;;6185227;23;20015;-87
2021/09/01 08:55:50;;;;;;;0.00;0.00;;;16.70;99.90;;;;;;6184683;23;20340;-87
2021/09/01 08:58:17;;;;;;;0.00;0.00;;;16.70;99.90;;;;;;6185518;23;20016;-88
2021/09/01 09:00:44;;;;;;;0.10;0.10;;;16.80;99.90;;;;;;6185070;23;20013;-87
2021/09/01 09:03:11;;;;;;;0.00;0.00;;;16.90;99.90;;;;;;6160405;23;20110;-88
2021/09/01 09:05:40;;;;;;;0.00;0.00;;;16.90;99.90;;;;;;6160469;23;20322;-86
2021/09/01 09:08:11;;;;;;;0.00;0.00;;;17.00;99.90;;;;;;6208743;23;20020;-86
2021/09/01 09:10:44;;;;;;;0.00;0.00;;;16.90;99.90;;;;;;6209982;23;20009;-90
2021/09/01 09:17:10;;;;;;;0.00;0.00;;;17.30;99.90;;;;;;6262425;23;20018;-89
2021/09/01 09:20:16;;;;;;;0.00;0.00;;;17.30;99.90;;;;;;6210075;23;20098;-89
2021/09/01 09:22:42;;;;;;;0.30;0.30;;;17.30;99.90;;;;;;6210401;23;20017;-88
2021/09/01 09:25:21;;;;;;;0.47;0.30;;;17.50;99.90;;;;;;6185255;23;20476;-89
2021/09/01 09:27:54;;;;;;;0.10;0.10;;;17.50;99.90;;;;;;6209605;23;20013;-88
2021/09/01 09:30:20;;;;;;;0.10;0.10;;;17.50;99.90;;;;;;6209916;23;20012;-89
2021/09/01 09:33:15;;;;;;;0.10;0.10;;;17.50;99.90;;;;;;6230880;23;20373;-90
2021/09/01 09:35:47;;;;;;;0.28;0.20;;;17.60;99.90;;;;;;6227377;23;20499;-89
2021/09/01 09:38:26;;;;;;;0.10;0.10;;;17.60;99.90;;;;;;6235224;23;20016;-90
2021/09/01 09:40:53;;;;;;;0.40;0.30;;;17.70;99.90;;;;;;6235120;23;20012;-88
2021/09/01 09:43:22;;;;;;;0.30;0.22;;;17.70;99.90;;;;;;6210576;23;20023;-88
2021/09/01 09:45:57;;;;;;;1.15;0.17;;;17.80;99.90;;;;;;6234931;23;20012;-87
2021/09/01 09:48:29;;;;;;;0.10;0.10;;;17.80;99.90;;;;;;6235187;23;20020;-89
2021/09/01 09:50:57;;;;;;;0.38;0.30;;;17.80;99.90;;;;;;6235900;23;20048;-88
2021/09/01 09:53:44;;;;;;;0.57;0.45;;;17.90;99.90;;;;;;6261949;23;20016;-92
2021/09/01 09:56:24;;;;;;;0.38;0.38;;;18.00;99.90;;;;;;6238003;23;20103;-88
2021/09/01 09:59:01;;;;;;;0.00;0.00;;;18.10;99.90;;;;;;6236574;23;20020;-92
2021/09/01 10:01:28;;;;;;;0.40;0.28;;;18.10;99.90;;;;;;6235280;23;20016;-88
2021/09/01 10:03:56;;;;;;;0.10;0.10;;;18.10;99.90;;;;;;6186988;23;20099;-89
2021/09/01 10:06:23;;;;;;;0.98;0.28;;;18.20;99.90;;;;;;6186347;23;20009;-86
2021/09/01 10:08:55;;;;;;;0.20;0.15;;;18.20;99.90;;;;;;6186995;23;20448;-89
2021/09/01 10:11:23;;;;;;;0.00;0.00;;;18.30;99.90;;;;;;6210759;23;20460;-89
2021/09/01 10:13:52;;;;;;;0.10;0.10;;;18.40;99.90;;;;;;6235415;23;20013;-88
2021/09/01 10:16:22;;;;;;;0.00;0.00;;;18.40;99.90;;;;;;6210471;23;20047;-86
2021/09/01 10:19:14;;;;;;;0.85;0.35;;;18.50;99.90;;;;;;6235867;23;20015;-86
2021/09/01 10:22:13;;;;;;;0.00;0.00;;;18.50;99.90;;;;;;6260674;23;20095;-88
2021/09/01 10:24:44;;;;;;;0.50;0.20;;;18.50;99.90;;;;;;6146897;23;20020;-87
2021/09/01 10:27:23;;;;;;;0.10;0.10;;;18.50;99.90;;;;;;6211147;23;20017;-87
2021/09/01 10:29:53;;;;;;;0.10;0.10;;;18.60;99.90;;;;;;6210717;23;20012;-89
2021/09/01 10:32:41;;;;;;;0.57;0.22;;;18.60;99.90;;;;;;6234858;23;20020;-88
2021/09/01 10:35:11;;;;;;;0.55;0.13;;;18.70;99.90;;;;;;6234456;23;20017;-87
2021/09/01 10:37:55;;;;;;;0.10;0.10;;;18.80;99.90;;;;;;6260314;23;20091;-90
2021/09/01 10:40:21;;;;;;;0.28;0.10;;;18.90;99.90;;;;;;6211466;23;20015;-89
2021/09/01 10:42:49;;;;;;;0.20;0.20;;;18.80;99.90;;;;;;6236547;23;20091;-89
2021/09/01 10:45:20;;;;;;;0.30;0.22;;;19.00;99.90;;;;;;6235869;23;20013;-89
2021/09/01 10:47:49;;;;;;;0.20;0.17;;;19.00;99.90;;;;;;6235200;23;20009;-88
2021/09/01 10:50:19;;;;;;;0.20;0.20;;;19.10;99.90;;;;;;6235524;23;20012;-88
2021/09/01 10:52:57;;;;;;;0.10;0.10;;;19.10;99.90;;;;;;6211360;23;20012;-88
2021/09/01 10:55:24;;;;;;;0.85;0.22;;;19.10;99.90;;;;;;6260957;23;20013;-89
2021/09/01 10:58:14;;;;;;;0.10;0.10;;;19.10;99.90;;;;;;6210833;23;20017;-89
2021/09/01 11:00:42;;;;;;;0.20;0.17;;;19.10;99.90;;;;;;6219422;23;20016;-88
2021/09/01 11:03:09;;;;;;;0.55;0.52;;;19.10;99.90;;;;;;6234966;23;20016;-89
2021/09/01 11:05:36;;;;;;;0.55;0.20;;;19.00;99.90;;;;;;6209507;23;20012;-89
2021/09/01 11:08:02;;;;;;;0.10;0.10;;;18.90;99.90;;;;;;6234333;23;20442;-90
2021/09/01 11:10:29;;;;;;;0.20;0.20;;;18.90;99.90;;;;;;6208375;23;20088;-88
2021/09/01 11:12:58;;;;;;;1.35;0.52;;;18.90;99.90;;;;;;6183724;23;20009;-90
2021/09/01 11:15:27;;;;;;;0.00;0.00;;;18.90;99.90;;;;;;6208222;23;20126;-88
2021/09/01 11:18:08;;;;;;;0.00;0.00;;;18.90;99.90;;;;;;6233367;23;20013;-87
2021/09/01 11:20:35;;;;;;;0.15;0.08;;;19.00;99.90;;;;;;6208141;23;20017;-90
2021/09/01 11:23:02;;;;;;;0.20;0.20;;;19.00;99.90;;;;;;6208897;23;20315;-91
2021/09/01 11:25:32;;;;;;;0.17;0.17;;;19.00;99.90;;;;;;6233550;23;20104;-88
2021/09/01 11:28:01;;;;;;;0.17;0.17;;;18.90;99.90;;;;;;6185115;23;20091;-87
2021/09/01 11:30:33;;;;;;;0.20;0.20;;;18.80;99.90;;;;;;6207978;23;20039;-87
2021/09/01 11:32:59;;;;;;;0.28;0.28;;;18.90;99.90;;;;;;6233226;23;20075;-89
2021/09/01 11:35:29;;;;;;;0.30;0.20;;;18.80;99.90;;;;;;6184094;23;20021;-90
2021/09/01 11:38:03;;;;;;;0.20;0.20;;;18.80;99.90;;;;;;6209673;23;20019;-91
2021/09/01 11:40:58;;;;;;;0.20;0.20;;;18.80;99.90;;;;;;6234799;23;20017;-91
2021/09/01 11:43:25;;;;;;;0.15;0.00;;;18.80;99.90;;;;;;6233921;23;20012;-90
2021/09/01 11:45:53;;;;;;;0.15;0.10;;;18.80;99.90;;;;;;6209351;23;20020;-92
2021/09/01 11:48:42;;;;;;;0.03;0.03;;;18.90;99.90;;;;;;6234654;23;20013;-91
2021/09/01 11:51:09;;;;;;;0.20;0.20;;;18.80;99.90;;;;;;6234092;23;20048;-89
2021/09/01 11:53:43;;;;;;;0.22;0.20;;;18.90;99.90;;;;;;6234250;23;20334;-92
2021/09/01 11:56:10;;;;;;;0.10;0.10;;;18.90;99.90;;;;;;6234808;23;20061;-91
2021/09/01 11:58:37;;;;;;;0.00;0.00;;;18.90;99.90;;;;;;6234023;23;20008;-93
2021/09/01 12:01:05;;;;;;;0.05;0.05;;;18.90;99.90;;;;;;6233626;23;20019;-90
2021/09/01 12:03:32;;;;;;;0.35;0.35;;;18.90;99.90;;;;;;6232953;23;20043;-93
2021/09/01 12:06:07;;;;;;;0.00;0.00;;;18.90;99.90;;;;;;6208797;23;20342;-92
2021/09/01 12:08:46;;;;;;;0.00;0.00;;;19.00;99.90;;;;;;6233785;23;20401;-91
2021/09/01 12:11:15;;;;;;;0.25;0.20;;;18.90;99.90;;;;;;6236567;23;20009;-92
2021/09/01 12:13:44;;;;;;;0.10;0.10;;;18.90;99.90;;;;;;6235723;23;20067;-89
2021/09/01 12:16:12;;;;;;;0.10;0.10;;;19.00;99.90;;;;;;6236437;23;20013;-90
2021/09/01 12:18:52;;;;;;;0.00;0.00;;;19.00;99.90;;;;;;6237536;23;20138;-88
2021/09/01 12:21:21;;;;;;;0.15;0.15;;;19.00;99.90;;;;;;6236767;23;20013;-92
2021/09/01 12:24:15;;;;;;;0.00;0.00;;;19.00;99.90;;;;;;6237051;23;20013;-94
2021/09/01 12:26:56;;;;;;;0.00;0.00;;;19.10;99.90;;;;;;6238121;23;20337;-93
2021/09/01 12:29:32;;;;;;;0.20;0.13;;;19.10;99.90;;;;;;6236056;23;20008;-93
2021/09/01 12:32:00;;;;;;;0.00;0.00;;;19.10;99.90;;;;;;6235731;23;20017;-92
2021/09/01 12:34:30;;;;;;;0.40;0.30;;;19.20;99.90;;;;;;6211267;23;20519;-93
2021/09/01 12:36:58;;;;;;;0.10;0.10;;;19.10;99.90;;;;;;6236133;23;20074;-95
2021/09/01 12:39:25;;;;;;;0.00;0.00;;;19.30;99.90;;;;;;6235396;23;20013;-94
2021/09/01 12:41:52;;;;;;;0.10;0.10;;;19.40;99.90;;;;;;6235733;23;20016;-94
2021/09/01 12:44:19;;;;;;;0.10;0.10;;;19.50;99.90;;;;;;6210858;23;20020;-92
2021/09/01 12:46:46;;;;;;;0.10;0.10;;;19.50;99.90;;;;;;6235409;23;20009;-92
2021/09/01 12:49:25;;;;;;;0.00;0.00;;;19.60;99.90;;;;;;6186693;23;20414;-93
2021/09/01 12:51:52;;;;;;;0.43;0.20;;;19.60;99.90;;;;;;6237370;23;20013;-93
2021/09/01 12:54:22;;;;;;;0.43;0.43;;;19.50;99.90;;;;;;6237877;23;20342;-94
2021/09/01 12:56:50;;;;;;;0.00;0.00;;;19.40;99.90;;;;;;6211595;23;20016;-94
2021/09/01 12:59:17;;;;;;;0.10;0.10;;;19.40;99.90;;;;;;6187862;23;20016;-94
2021/09/01 13:01:44;;;;;;;0.15;0.13;;;19.40;99.90;;;;;;6209729;23;20019;-95